Time;durP1;ratioP1;P1;durP2;ratioP2;P2;SDS_P1;SDS_P2;PMS_P1;PMS_P2;Temp;Humidity;BMP_temperature;BMP_pressure;BME280_temperature;BME280_humidity;BME280_pressure;Samples;Min_cycle;Max_cycle;Signal;HPM_P1;HPM_P2
2023/09/17 00:01:41;;;;;;;;;;;23.00;58.00;;;;;;1568815;75;752;-70
2023/09/17 00:03:42;;;;;;;;;;;23.00;58.00;;;;;;1569083;74;673;-69
2023/09/17 00:05:44;;;;;;;;;;;23.00;58.10;;;;;;1569335;74;709;-68
2023/09/17 00:07:46;;;;;;;;;;;22.90;58.10;;;;;;1565140;74;1145;-68
2023/09/17 00:09:49;;;;;;;;;;;23.00;58.00;;;;;;1561717;74;1942;-68
2023/09/17 00:11:51;;;;;;;;;;;23.00;58.00;;;;;;1501943;77;795;-68
2023/09/17 00:13:53;;;;;;;;;;;23.00;58.00;;;;;;1504370;77;726;-68
2023/09/17 00:15:55;;;;;;;;;;;23.00;58.10;;;;;;1501045;77;716;-68
2023/09/17 00:17:57;;;;;;;;;;;23.00;58.10;;;;;;1520622;77;1165;-68
2023/09/17 00:19:58;;;;;;;;;;;22.90;58.00;;;;;;1523661;77;778;-67
2023/09/17 00:22:02;;;;;;;;;;;23.00;58.00;;;;;;1518246;78;820;-68
2023/09/17 00:24:04;;;;;;;;;;;22.90;58.10;;;;;;1521837;77;1643;-68
2023/09/17 00:26:07;;;;;;;;;;;23.00;58.00;;;;;;1521662;78;1352;-67
2023/09/17 00:28:09;;;;;;;;;;;23.00;58.00;;;;;;1521380;77;1284;-69
2023/09/17 00:30:12;;;;;;;;;;;22.90;58.00;;;;;;1519399;78;1949;-69
2023/09/17 00:32:14;;;;;;;;;;;22.90;58.00;;;;;;1515272;77;653;-68
2023/09/17 00:34:15;;;;;;;;;;;23.00;58.00;;;;;;1525075;78;680;-68
2023/09/17 00:36:17;;;;;;;;;;;23.00;57.90;;;;;;1523095;77;723;-68
2023/09/17 00:38:19;;;;;;;;;;;22.90;57.90;;;;;;1524880;77;1130;-68
2023/09/17 00:40:26;;;;;;;;;;;22.90;57.90;;;;;;1515696;76;808;-68
2023/09/17 00:42:25;;;;;;;;;;;23.00;57.90;;;;;;1514943;77;1172;-68
2023/09/17 00:44:27;;;;;;;;;;;23.00;57.90;;;;;;1523151;77;759;-68
2023/09/17 00:46:30;;;;;;;;;;;23.00;57.80;;;;;;1521634;78;701;-68
2023/09/17 00:48:32;;;;;;;;;;;22.90;57.80;;;;;;1521885;77;1139;-69
2023/09/17 00:50:34;;;;;;;;;;;23.00;57.80;;;;;;1521861;76;1904;-68
2023/09/17 00:52:36;;;;;;;;;;;22.90;57.80;;;;;;1516230;77;796;-69
2023/09/17 00:54:38;;;;;;;;;;;23.00;57.80;;;;;;1524412;78;812;-68
2023/09/17 00:56:40;;;;;;;;;;;22.90;57.80;;;;;;1505339;76;777;-69
2023/09/17 00:58:42;;;;;;;;;;;22.90;57.80;;;;;;1521694;77;1107;-68
2023/09/17 01:00:44;;;;;;;;;;;23.00;57.80;;;;;;1514192;78;756;-69
2023/09/17 01:02:47;;;;;;;;;;;23.00;57.80;;;;;;1521571;77;805;-68
2023/09/17 01:04:50;;;;;;;;;;;23.00;57.80;;;;;;1524957;78;676;-68
2023/09/17 01:06:55;;;;;;;;;;;23.00;57.70;;;;;;1520062;76;863;-68
2023/09/17 01:08:55;;;;;;;;;;;22.90;57.80;;;;;;1523230;77;1560;-69
2023/09/17 01:10:57;;;;;;;;;;;22.90;57.80;;;;;;1523650;76;1956;-69
2023/09/17 01:13:00;;;;;;;;;;;23.00;57.80;;;;;;1522219;77;800;-68
2023/09/17 01:15:06;;;;;;;;;;;23.00;57.80;;;;;;1486883;79;772;-69
2023/09/17 01:17:11;;;;;;;;;;;22.90;57.70;;;;;;1516477;77;2220;-69
2023/09/17 01:19:23;;;;;;;;;;;23.00;57.70;;;;;;1518588;78;760;-68
2023/09/17 01:21:26;;;;;;;;;;;22.90;57.60;;;;;;1519420;77;1377;-69
2023/09/17 01:23:36;;;;;;;;;;;23.00;57.60;;;;;;1519893;77;761;-68
2023/09/17 01:25:43;;;;;;;;;;;22.90;57.60;;;;;;1523917;77;777;-69
2023/09/17 01:27:45;;;;;;;;;;;23.00;57.60;;;;;;1522338;77;1985;-68
2023/09/17 01:29:47;;;;;;;;;;;22.90;57.50;;;;;;1519616;77;1926;-69
2023/09/17 01:31:49;;;;;;;;;;;23.00;57.60;;;;;;1521395;78;750;-68
2023/09/17 01:33:53;;;;;;;;;;;22.90;57.60;;;;;;1518656;78;777;-69
2023/09/17 01:35:56;;;;;;;;;;;22.90;57.60;;;;;;1509433;76;843;-65
2023/09/17 01:37:59;;;;;;;;;;;22.90;57.50;;;;;;1510411;77;1167;-69
2023/09/17 01:40:07;;;;;;;;;;;22.90;57.40;;;;;;1516815;77;740;-68
2023/09/17 01:42:06;;;;;;;;;;;22.90;57.30;;;;;;1519449;77;1195;-69
2023/09/17 01:44:08;;;;;;;;;;;22.90;57.40;;;;;;1523784;77;657;-68
2023/09/17 01:46:10;;;;;;;;;;;22.90;57.30;;;;;;1524706;77;751;-69
2023/09/17 01:48:12;;;;;;;;;;;22.90;57.30;;;;;;1524062;78;1134;-68
2023/09/17 01:50:19;;;;;;;;;;;22.90;57.30;;;;;;1522259;77;1942;-68
2023/09/17 01:52:22;;;;;;;;;;;22.90;57.30;;;;;;1513754;77;1463;-68
2023/09/17 01:54:21;;;;;;;;;;;22.90;57.30;;;;;;1523462;77;1732;-68
2023/09/17 01:56:23;;;;;;;;;;;22.90;57.30;;;;;;1521084;78;642;-67
2023/09/17 01:58:25;;;;;;;;;;;22.90;57.30;;;;;;1517644;77;1139;-68
2023/09/17 02:00:28;;;;;;;;;;;22.90;57.20;;;;;;1524112;77;767;-68
2023/09/17 02:02:30;;;;;;;;;;;22.90;57.20;;;;;;1524359;77;790;-68
2023/09/17 02:04:32;;;;;;;;;;;22.90;57.20;;;;;;1521603;77;733;-67
2023/09/17 02:06:36;;;;;;;;;;;22.90;57.20;;;;;;1509190;77;692;-69
2023/09/17 02:08:37;;;;;;;;;;;22.90;57.10;;;;;;1519131;77;1686;-68
2023/09/17 02:10:40;;;;;;;;;;;22.90;57.10;;;;;;1511658;78;1924;-69
2023/09/17 02:12:42;;;;;;;;;;;22.90;57.10;;;;;;1519377;77;792;-69
2023/09/17 02:14:44;;;;;;;;;;;22.90;57.10;;;;;;1524444;77;704;-67
2023/09/17 02:16:46;;;;;;;;;;;22.90;57.00;;;;;;1522889;76;718;-69
2023/09/17 02:18:47;;;;;;;;;;;22.90;57.00;;;;;;1519342;76;1663;-69
2023/09/17 02:20:49;;;;;;;;;;;22.90;57.00;;;;;;1524957;78;779;-69
2023/09/17 02:22:51;;;;;;;;;;;22.90;57.00;;;;;;1521070;77;796;-68
2023/09/17 02:24:53;;;;;;;;;;;22.90;57.00;;;;;;1520767;76;742;-68
2023/09/17 02:26:55;;;;;;;;;;;22.90;57.00;;;;;;1515083;77;734;-69
2023/09/17 02:28:57;;;;;;;;;;;22.90;57.00;;;;;;1519297;77;1112;-68
2023/09/17 02:30:59;;;;;;;;;;;22.90;56.60;;;;;;1523713;77;1944;-68
2023/09/17 02:33:01;;;;;;;;;;;23.00;56.80;;;;;;1522509;78;743;-68
2023/09/17 02:35:03;;;;;;;;;;;22.90;56.90;;;;;;1525444;76;773;-69
2023/09/17 02:37:05;;;;;;;;;;;22.90;56.80;;;;;;1520360;78;1214;-69
2023/09/17 02:39:08;;;;;;;;;;;22.90;56.90;;;;;;1523065;77;848;-67
2023/09/17 02:41:10;;;;;;;;;;;22.90;56.80;;;;;;1518119;77;804;-68
2023/09/17 02:43:13;;;;;;;;;;;22.90;56.70;;;;;;1513919;77;792;-70
2023/09/17 02:45:15;;;;;;;;;;;22.80;56.60;;;;;;1522978;76;831;-68
2023/09/17 02:47:17;;;;;;;;;;;22.90;56.80;;;;;;1524195;78;1154;-68
2023/09/17 02:49:22;;;;;;;;;;;22.90;56.80;;;;;;1522852;77;697;-68
2023/09/17 02:51:24;;;;;;;;;;;22.90;56.70;;;;;;1513634;77;1932;-67
2023/09/17 02:53:26;;;;;;;;;;;22.90;56.70;;;;;;1517457;77;634;-69
2023/09/17 02:55:27;;;;;;;;;;;22.80;56.60;;;;;;1522918;77;914;-69
2023/09/17 02:57:29;;;;;;;;;;;22.90;56.80;;;;;;1522256;77;1092;-68
2023/09/17 02:59:33;;;;;;;;;;;22.90;56.70;;;;;;1521075;77;745;-69
2023/09/17 03:01:35;;;;;;;;;;;22.90;56.70;;;;;;1515471;77;767;-66
2023/09/17 03:03:37;;;;;;;;;;;22.90;56.70;;;;;;1522071;77;657;-69
2023/09/17 03:05:39;;;;;;;;;;;22.90;56.60;;;;;;1522274;77;735;-68
2023/09/17 03:07:41;;;;;;;;;;;22.90;56.60;;;;;;1518909;78;1157;-67
2023/09/17 03:09:43;;;;;;;;;;;22.90;56.70;;;;;;1522836;77;678;-68
2023/09/17 03:11:45;;;;;;;;;;;22.90;56.50;;;;;;1506084;76;1898;-66
2023/09/17 03:13:47;;;;;;;;;;;22.90;56.50;;;;;;1515564;76;1524;-68
2023/09/17 03:15:49;;;;;;;;;;;22.90;56.50;;;;;;1519976;78;854;-68
2023/09/17 03:17:51;;;;;;;;;;;22.90;56.50;;;;;;1477441;79;1182;-67
2023/09/17 03:19:53;;;;;;;;;;;22.90;56.50;;;;;;1525410;78;694;-67
2023/09/17 03:21:55;;;;;;;;;;;22.90;56.40;;;;;;1525229;77;722;-68
2023/09/17 03:23:57;;;;;;;;;;;22.80;56.30;;;;;;1523270;77;746;-67
2023/09/17 03:26:00;;;;;;;;;;;22.90;56.50;;;;;;1521399;76;768;-67
2023/09/17 03:28:02;;;;;;;;;;;22.90;56.40;;;;;;1522860;77;1107;-67
2023/09/17 03:30:05;;;;;;;;;;;22.80;56.20;;;;;;1518675;77;1928;-67
2023/09/17 03:32:06;;;;;;;;;;;22.80;56.10;;;;;;1522245;77;829;-67
2023/09/17 03:34:08;;;;;;;;;;;22.80;56.20;;;;;;1517306;77;687;-67
2023/09/17 03:36:10;;;;;;;;;;;22.80;56.30;;;;;;1522887;77;685;-67
2023/09/17 03:38:12;;;;;;;;;;;22.80;56.20;;;;;;1521315;77;1104;-67
2023/09/17 03:40:14;;;;;;;;;;;22.80;56.20;;;;;;1515843;77;776;-66
2023/09/17 03:42:16;;;;;;;;;;;22.90;56.20;;;;;;1518828;78;878;-64
2023/09/17 03:44:18;;;;;;;;;;;22.80;56.10;;;;;;1521827;77;808;-67
2023/09/17 03:46:20;;;;;;;;;;;22.80;56.10;;;;;;1517124;77;859;-67
2023/09/17 03:48:21;;;;;;;;;;;22.80;56.10;;;;;;1522886;76;1143;-67
2023/09/17 03:50:23;;;;;;;;;;;22.80;56.10;;;;;;1515658;77;1932;-67
2023/09/17 03:52:29;;;;;;;;;;;22.80;56.10;;;;;;1522311;76;763;-68
2023/09/17 03:54:32;;;;;;;;;;;22.80;56.10;;;;;;1519100;77;821;-68
2023/09/17 03:56:34;;;;;;;;;;;22.80;56.10;;;;;;1521910;78;732;-68
2023/09/17 03:58:36;;;;;;;;;;;22.80;56.10;;;;;;1522891;77;1076;-68
2023/09/17 04:00:37;;;;;;;;;;;22.80;56.00;;;;;;1524868;77;709;-68
2023/09/17 04:02:40;;;;;;;;;;;22.90;56.20;;;;;;1524619;77;746;-67
2023/09/17 04:04:41;;;;;;;;;;;22.80;56.00;;;;;;1524690;77;676;-68
2023/09/17 04:06:45;;;;;;;;;;;22.90;56.00;;;;;;1522754;76;798;-67
2023/09/17 04:08:47;;;;;;;;;;;22.80;56.00;;;;;;1520512;77;1136;-68
2023/09/17 04:10:49;;;;;;;;;;;22.80;56.00;;;;;;1521221;76;1944;-67
2023/09/17 04:12:51;;;;;;;;;;;22.90;56.10;;;;;;1525723;76;717;-68
2023/09/17 04:14:53;;;;;;;;;;;22.80;55.90;;;;;;1524064;78;741;-68
2023/09/17 04:16:55;;;;;;;;;;;22.80;56.00;;;;;;1522607;77;748;-68
2023/09/17 04:18:57;;;;;;;;;;;22.90;56.00;;;;;;1523358;77;1203;-67
2023/09/17 04:20:59;;;;;;;;;;;22.80;55.90;;;;;;1520701;77;746;-67
2023/09/17 04:23:01;;;;;;;;;;;22.80;55.80;;;;;;1519804;77;722;-68
2023/09/17 04:25:04;;;;;;;;;;;22.80;55.90;;;;;;1520875;77;738;-67
2023/09/17 04:27:06;;;;;;;;;;;22.90;56.00;;;;;;1518850;77;2042;-67
2023/09/17 04:29:08;;;;;;;;;;;22.70;55.80;;;;;;1523350;78;707;-68
2023/09/17 04:31:10;;;;;;;;;;;22.80;55.80;;;;;;1519611;78;1917;-67
2023/09/17 04:33:12;;;;;;;;;;;22.80;55.80;;;;;;1486729;79;897;-67
2023/09/17 04:35:18;;;;;;;;;;;22.80;55.80;;;;;;1521450;77;827;-67
2023/09/17 04:37:19;;;;;;;;;;;22.90;56.00;;;;;;1520377;77;1309;-67
2023/09/17 04:39:21;;;;;;;;;;;22.80;55.80;;;;;;1524339;77;681;-68
2023/09/17 04:41:23;;;;;;;;;;;22.80;55.80;;;;;;1520661;77;624;-67
2023/09/17 04:43:26;;;;;;;;;;;22.80;55.80;;;;;;1517762;77;788;-67
2023/09/17 04:45:36;;;;;;;;;;;22.80;55.80;;;;;;1525235;77;781;-64
2023/09/17 04:47:36;;;;;;;;;;;22.80;55.80;;;;;;1522921;78;1630;-68
2023/09/17 04:49:38;;;;;;;;;;;22.70;55.80;;;;;;1522546;77;656;-68
2023/09/17 04:51:40;;;;;;;;;;;22.80;55.80;;;;;;1523141;76;1930;-68
2023/09/17 04:53:42;;;;;;;;;;;22.70;55.90;;;;;;1521024;76;793;-68
2023/09/17 04:55:44;;;;;;;;;;;22.80;55.90;;;;;;1515047;78;757;-68
2023/09/17 04:57:46;;;;;;;;;;;22.80;55.80;;;;;;1521696;77;1099;-68
2023/09/17 04:59:49;;;;;;;;;;;22.80;55.90;;;;;;1517100;76;932;-68
2023/09/17 05:01:51;;;;;;;;;;;22.90;56.00;;;;;;1524067;77;751;-68
2023/09/17 05:03:53;;;;;;;;;;;22.80;55.90;;;;;;1522875;77;741;-68
2023/09/17 05:05:56;;;;;;;;;;;22.80;55.90;;;;;;1521310;78;1541;-67
2023/09/17 05:07:57;;;;;;;;;;;22.90;56.10;;;;;;1512850;77;1140;-67
2023/09/17 05:09:59;;;;;;;;;;;22.70;56.00;;;;;;1523137;77;726;-68
2023/09/17 05:12:01;;;;;;;;;;;22.80;56.00;;;;;;1524067;77;1941;-67
2023/09/17 05:14:03;;;;;;;;;;;22.70;56.10;;;;;;1520671;77;802;-66
2023/09/17 05:16:06;;;;;;;;;;;22.80;56.00;;;;;;1520063;76;708;-68
2023/09/17 05:18:12;;;;;;;;;;;22.70;56.10;;;;;;1527364;77;1203;-67
2023/09/17 05:20:12;;;;;;;;;;;22.80;56.10;;;;;;1521388;77;1216;-67
2023/09/17 05:22:14;;;;;;;;;;;22.80;56.10;;;;;;1524018;77;780;-67
2023/09/17 05:24:17;;;;;;;;;;;22.90;56.30;;;;;;1522654;76;664;-67
2023/09/17 05:26:18;;;;;;;;;;;22.80;56.20;;;;;;1519210;76;682;-67
2023/09/17 05:28:21;;;;;;;;;;;22.80;56.30;;;;;;1523386;78;1095;-68
2023/09/17 05:30:22;;;;;;;;;;;22.80;56.30;;;;;;1516754;77;1050;-67
2023/09/17 05:32:24;;;;;;;;;;;22.80;56.30;;;;;;1524007;77;1944;-67
2023/09/17 05:34:26;;;;;;;;;;;22.80;56.40;;;;;;1519788;77;802;-67
2023/09/17 05:36:28;;;;;;;;;;;22.80;56.40;;;;;;1526628;76;719;-67
2023/09/17 05:38:30;;;;;;;;;;;22.80;56.40;;;;;;1521429;76;1115;-68
2023/09/17 05:40:32;;;;;;;;;;;22.80;56.40;;;;;;1514819;76;709;-67
2023/09/17 05:42:34;;;;;;;;;;;22.80;56.50;;;;;;1520774;78;777;-67
2023/09/17 05:44:36;;;;;;;;;;;22.80;56.50;;;;;;1513483;76;777;-68
2023/09/17 05:46:38;;;;;;;;;;;22.70;56.50;;;;;;1516577;77;790;-67
2023/09/17 05:48:39;;;;;;;;;;;22.80;56.50;;;;;;1524180;77;1138;-67
2023/09/17 05:50:41;;;;;;;;;;;22.80;56.50;;;;;;1518591;77;791;-67
2023/09/17 05:52:43;;;;;;;;;;;22.80;56.60;;;;;;1525742;78;1938;-67
2023/09/17 05:54:45;;;;;;;;;;;22.80;56.60;;;;;;1524534;78;797;-68
2023/09/17 05:56:47;;;;;;;;;;;22.80;56.70;;;;;;1514542;78;752;-65
2023/09/17 05:58:49;;;;;;;;;;;22.70;56.60;;;;;;1521058;76;1068;-68
2023/09/17 06:00:53;;;;;;;;;;;22.80;56.70;;;;;;1516307;77;728;-67
2023/09/17 06:02:54;;;;;;;;;;;22.80;56.70;;;;;;1518004;77;1679;-68
2023/09/17 06:04:56;;;;;;;;;;;22.80;56.70;;;;;;1525423;77;707;-67
2023/09/17 06:06:58;;;;;;;;;;;22.80;56.80;;;;;;1520900;77;756;-68
2023/09/17 06:09:00;;;;;;;;;;;22.80;56.80;;;;;;1516912;76;768;-66
2023/09/17 06:11:02;;;;;;;;;;;22.80;56.80;;;;;;1506024;77;1930;-67
2023/09/17 06:13:04;;;;;;;;;;;22.80;56.80;;;;;;1521882;77;726;-68
2023/09/17 06:15:06;;;;;;;;;;;22.80;56.90;;;;;;1519926;77;774;-68
2023/09/17 06:17:08;;;;;;;;;;;22.80;57.00;;;;;;1514317;77;1236;-67
2023/09/17 06:19:10;;;;;;;;;;;22.90;57.10;;;;;;1525319;77;710;-67
2023/09/17 06:21:12;;;;;;;;;;;22.90;57.10;;;;;;1510183;78;689;-67
2023/09/17 06:23:14;;;;;;;;;;;22.80;56.90;;;;;;1517397;76;687;-67
2023/09/17 06:25:16;;;;;;;;;;;22.80;56.90;;;;;;1518339;77;716;-68
2023/09/17 06:27:18;;;;;;;;;;;22.90;57.10;;;;;;1513665;76;1146;-67
2023/09/17 06:29:19;;;;;;;;;;;22.80;57.00;;;;;;1522601;77;784;-67
2023/09/17 06:31:21;;;;;;;;;;;22.90;57.10;;;;;;1523195;78;1929;-67
2023/09/17 06:33:23;;;;;;;;;;;22.80;57.00;;;;;;1521445;76;783;-65
2023/09/17 06:35:25;;;;;;;;;;;22.90;57.20;;;;;;1517940;78;767;-68
2023/09/17 06:37:28;;;;;;;;;;;22.90;57.30;;;;;;1523514;77;1111;-67
2023/09/17 06:39:29;;;;;;;;;;;22.90;57.30;;;;;;1523383;76;796;-64
2023/09/17 06:41:31;;;;;;;;;;;22.80;57.10;;;;;;1514987;78;763;-66
2023/09/17 06:43:33;;;;;;;;;;;22.90;57.30;;;;;;1511288;77;736;-68
2023/09/17 06:45:35;;;;;;;;;;;22.90;57.30;;;;;;1516313;76;738;-67
2023/09/17 06:47:37;;;;;;;;;;;22.80;57.20;;;;;;1519553;77;1136;-68
2023/09/17 06:49:39;;;;;;;;;;;22.80;57.20;;;;;;1518584;77;799;-67
2023/09/17 06:51:41;;;;;;;;;;;22.80;57.30;;;;;;1521773;76;1937;-67
2023/09/17 06:53:43;;;;;;;;;;;22.80;57.30;;;;;;1514713;77;786;-67
2023/09/17 06:55:45;;;;;;;;;;;22.90;57.50;;;;;;1524695;77;725;-68
2023/09/17 06:57:46;;;;;;;;;;;22.80;57.30;;;;;;1517208;77;1093;-68
2023/09/17 06:59:48;;;;;;;;;;;22.90;57.60;;;;;;1524368;77;1547;-68
2023/09/17 07:01:50;;;;;;;;;;;22.90;57.60;;;;;;1524873;77;694;-66
2023/09/17 07:03:52;;;;;;;;;;;22.90;57.50;;;;;;1523817;77;616;-68
2023/09/17 07:05:54;;;;;;;;;;;22.90;57.60;;;;;;1522112;77;649;-68
2023/09/17 07:07:56;;;;;;;;;;;22.90;57.60;;;;;;1520974;77;1138;-68
2023/09/17 07:09:58;;;;;;;;;;;22.90;57.60;;;;;;1519047;77;689;-67
2023/09/17 07:12:00;;;;;;;;;;;22.90;57.60;;;;;;1522420;77;1926;-67
2023/09/17 07:14:09;;;;;;;;;;;22.90;57.70;;;;;;1509142;76;689;-68
2023/09/17 07:16:08;;;;;;;;;;;22.90;57.60;;;;;;1517716;77;1682;-67
2023/09/17 07:18:12;;;;;;;;;;;22.90;57.60;;;;;;1524639;77;1131;-68
2023/09/17 07:20:14;;;;;;;;;;;22.90;57.70;;;;;;1523987;78;578;-66
2023/09/17 07:22:16;;;;;;;;;;;22.90;57.70;;;;;;1525340;78;752;-67
2023/09/17 07:24:18;;;;;;;;;;;22.90;57.70;;;;;;1523646;77;727;-68
2023/09/17 07:26:20;;;;;;;;;;;22.90;57.70;;;;;;1510614;78;755;-68
2023/09/17 07:28:22;;;;;;;;;;;22.90;57.70;;;;;;1523775;77;1198;-67
2023/09/17 07:30:23;;;;;;;;;;;22.90;57.70;;;;;;1513983;78;697;-66
2023/09/17 07:32:28;;;;;;;;;;;22.90;57.70;;;;;;1523626;76;1940;-68
2023/09/17 07:34:31;;;;;;;;;;;22.90;57.80;;;;;;1524055;76;788;-67
2023/09/17 07:36:32;;;;;;;;;;;22.90;57.80;;;;;;1514358;77;701;-67
2023/09/17 07:38:34;;;;;;;;;;;22.90;57.70;;;;;;1517548;77;1129;-68
2023/09/17 07:40:36;;;;;;;;;;;23.00;57.70;;;;;;1518930;78;711;-68
2023/09/17 07:42:38;;;;;;;;;;;22.90;57.70;;;;;;1520987;78;769;-68
2023/09/17 07:44:40;;;;;;;;;;;23.00;57.80;;;;;;1515316;76;728;-68
2023/09/17 07:46:42;;;;;;;;;;;22.90;57.80;;;;;;1523166;76;779;-68
2023/09/17 07:48:46;;;;;;;;;;;22.90;57.80;;;;;;1523703;76;1193;-67
2023/09/17 07:50:49;;;;;;;;;;;22.90;57.70;;;;;;1522887;77;712;-67
2023/09/17 07:52:51;;;;;;;;;;;23.00;57.60;;;;;;1509759;77;1930;-65
2023/09/17 07:54:53;;;;;;;;;;;23.00;57.40;;;;;;1514446;77;1523;-68
2023/09/17 07:56:55;;;;;;;;;;;22.90;57.40;;;;;;1518470;76;729;-68
2023/09/17 07:58:57;;;;;;;;;;;23.00;57.30;;;;;;1515710;77;1588;-68
2023/09/17 08:00:59;;;;;;;;;;;23.00;57.40;;;;;;1523584;78;736;-67
2023/09/17 08:03:02;;;;;;;;;;;23.00;57.40;;;;;;1523019;78;749;-67
2023/09/17 08:05:04;;;;;;;;;;;23.00;57.40;;;;;;1515646;78;754;-68
2023/09/17 08:07:06;;;;;;;;;;;22.90;57.50;;;;;;1518300;77;1137;-67
2023/09/17 08:09:07;;;;;;;;;;;23.00;57.40;;;;;;1524393;77;779;-68
2023/09/17 08:11:09;;;;;;;;;;;23.00;57.60;;;;;;1520016;78;758;-67
2023/09/17 08:13:12;;;;;;;;;;;23.00;57.60;;;;;;1518291;78;1945;-67
2023/09/17 08:15:17;;;;;;;;;;;23.00;57.60;;;;;;1525239;77;712;-67
2023/09/17 08:17:17;;;;;;;;;;;23.00;57.70;;;;;;1522027;77;1513;-67
2023/09/17 08:19:19;;;;;;;;;;;23.00;57.80;;;;;;1525410;77;744;-67
2023/09/17 08:21:22;;;;;;;;;;;23.00;57.90;;;;;;1522527;77;740;-68
2023/09/17 08:23:24;;;;;;;;;;;23.00;58.00;;;;;;1516055;78;812;-66
2023/09/17 08:25:26;;;;;;;;;;;23.00;58.10;;;;;;1522133;76;686;-67
2023/09/17 08:27:28;;;;;;;;;;;23.00;58.20;;;;;;1523862;77;1191;-67
2023/09/17 08:29:30;;;;;;;;;;;23.00;58.40;;;;;;1514937;77;679;-66
2023/09/17 08:31:32;;;;;;;;;;;23.00;58.50;;;;;;1523516;78;772;-67
2023/09/17 08:33:35;;;;;;;;;;;23.00;58.50;;;;;;1523477;78;1910;-68
2023/09/17 08:35:38;;;;;;;;;;;23.00;58.70;;;;;;1520280;78;728;-67
2023/09/17 08:37:40;;;;;;;;;;;23.00;58.70;;;;;;1515940;77;1154;-67
2023/09/17 08:39:42;;;;;;;;;;;23.10;59.00;;;;;;1520764;78;807;-68
2023/09/17 08:41:44;;;;;;;;;;;23.00;58.90;;;;;;1518033;76;796;-68
2023/09/17 08:43:46;;;;;;;;;;;23.00;59.10;;;;;;1519337;76;802;-66
2023/09/17 08:45:48;;;;;;;;;;;23.10;59.40;;;;;;1523596;77;729;-67
2023/09/17 08:47:50;;;;;;;;;;;23.10;59.50;;;;;;1524718;78;1143;-67
2023/09/17 08:49:52;;;;;;;;;;;23.10;59.50;;;;;;1521360;78;712;-67
2023/09/17 08:51:54;;;;;;;;;;;23.10;59.60;;;;;;1524329;76;1936;-67
2023/09/17 08:53:57;;;;;;;;;;;23.00;59.60;;;;;;1517475;78;735;-68
2023/09/17 08:55:59;;;;;;;;;;;23.10;59.70;;;;;;1522287;77;1094;-67
2023/09/17 08:58:05;;;;;;;;;;;23.00;59.70;;;;;;1514363;76;1136;-68
2023/09/17 09:00:11;;;;;;;;;;;23.10;59.80;;;;;;1517561;78;1930;-67
2023/09/17 09:02:14;;;;;;;;;;;23.10;60.00;;;;;;1521792;78;636;-67
2023/09/17 09:04:16;;;;;;;;;;;23.10;59.90;;;;;;1517367;77;1748;-68
2023/09/17 09:06:18;;;;;;;;;;;23.10;59.90;;;;;;1510981;76;679;-65
2023/09/17 09:08:20;;;;;;;;;;;23.10;60.00;;;;;;1522367;76;1173;-65
2023/09/17 09:10:22;;;;;;;;;;;23.10;60.00;;;;;;1517846;77;747;-67
2023/09/17 09:12:24;;;;;;;;;;;23.10;60.10;;;;;;1521994;78;1916;-66
2023/09/17 09:14:26;;;;;;;;;;;23.10;60.10;;;;;;1516294;76;582;-66
2023/09/17 09:16:28;;;;;;;;;;;23.10;60.20;;;;;;1523823;76;819;-67
2023/09/17 09:18:29;;;;;;;;;;;23.10;60.30;;;;;;1523664;77;1185;-67
2023/09/17 09:20:32;;;;;;;;;;;23.10;60.30;;;;;;1520907;78;878;-67
2023/09/17 09:22:34;;;;;;;;;;;23.10;60.30;;;;;;1499831;77;739;-68
2023/09/17 09:24:44;;;;;;;;;;;23.20;60.40;;;;;;1502815;77;710;-68
2023/09/17 09:26:45;;;;;;;;;;;23.10;60.40;;;;;;1506855;77;1895;-68
2023/09/17 09:28:47;;;;;;;;;;;23.10;60.50;;;;;;1518239;78;1149;-68
2023/09/17 09:30:49;;;;;;;;;;;23.10;60.60;;;;;;1519688;77;808;-67
2023/09/17 09:32:51;;;;;;;;;;;23.20;60.60;;;;;;1517753;77;1933;-67
2023/09/17 09:34:53;;;;;;;;;;;23.10;60.60;;;;;;1524042;77;726;-68
2023/09/17 09:36:55;;;;;;;;;;;23.10;60.70;;;;;;1518647;77;721;-67
2023/09/17 09:38:57;;;;;;;;;;;23.10;60.70;;;;;;1517507;77;1092;-67
2023/09/17 09:40:59;;;;;;;;;;;23.10;60.70;;;;;;1524359;76;739;-68
2023/09/17 09:43:02;;;;;;;;;;;23.10;60.70;;;;;;1521147;76;736;-68
2023/09/17 09:45:04;;;;;;;;;;;23.10;60.80;;;;;;1485497;79;735;-67
2023/09/17 09:47:06;;;;;;;;;;;23.10;60.80;;;;;;1517993;77;1462;-68
2023/09/17 09:49:08;;;;;;;;;;;23.20;60.90;;;;;;1517922;77;721;-68
2023/09/17 09:51:10;;;;;;;;;;;23.20;60.90;;;;;;1523497;76;688;-68
2023/09/17 09:53:12;;;;;;;;;;;23.10;61.00;;;;;;1523159;78;1912;-68
2023/09/17 09:55:14;;;;;;;;;;;23.10;61.10;;;;;;1521948;78;664;-68
2023/09/17 09:57:16;;;;;;;;;;;23.10;61.20;;;;;;1519199;77;1146;-68
2023/09/17 09:59:18;;;;;;;;;;;23.10;61.30;;;;;;1519916;76;723;-67
2023/09/17 10:01:20;;;;;;;;;;;23.10;61.30;;;;;;1524646;76;758;-68
2023/09/17 10:03:21;;;;;;;;;;;23.20;61.40;;;;;;1517958;78;953;-67
2023/09/17 10:05:34;;;;;;;;;;;23.20;61.40;;;;;;1519620;77;709;-66
2023/09/17 10:07:36;;;;;;;;;;;23.10;61.50;;;;;;1522938;77;1150;-67
2023/09/17 10:09:38;;;;;;;;;;;23.10;61.50;;;;;;1521922;77;607;-68
2023/09/17 10:11:40;;;;;;;;;;;23.20;61.60;;;;;;1522568;78;777;-65
2023/09/17 10:13:42;;;;;;;;;;;23.20;61.60;;;;;;1522652;77;1913;-67
2023/09/17 10:15:45;;;;;;;;;;;23.20;61.60;;;;;;1521287;76;788;-67
2023/09/17 10:17:47;;;;;;;;;;;23.20;61.70;;;;;;1521178;77;1107;-64
2023/09/17 10:19:49;;;;;;;;;;;23.20;61.70;;;;;;1523556;76;1016;-68
2023/09/17 10:21:51;;;;;;;;;;;23.20;61.60;;;;;;1519769;76;740;-67
2023/09/17 10:23:54;;;;;;;;;;;23.20;61.70;;;;;;1519426;78;680;-68
2023/09/17 10:25:57;;;;;;;;;;;23.20;61.70;;;;;;1521654;77;728;-68
2023/09/17 10:27:59;;;;;;;;;;;23.20;61.80;;;;;;1522299;78;1136;-67
2023/09/17 10:30:03;;;;;;;;;;;23.20;61.80;;;;;;1523869;76;791;-68
2023/09/17 10:32:05;;;;;;;;;;;23.20;61.80;;;;;;1523696;78;677;-67
2023/09/17 10:34:08;;;;;;;;;;;23.20;61.90;;;;;;1520382;77;1948;-68
2023/09/17 10:36:10;;;;;;;;;;;23.20;62.00;;;;;;1513654;77;671;-67
2023/09/17 10:38:12;;;;;;;;;;;23.20;61.90;;;;;;1519623;76;1171;-67
2023/09/17 10:40:15;;;;;;;;;;;23.20;62.00;;;;;;1520478;77;690;-68
2023/09/17 10:42:17;;;;;;;;;;;23.20;62.00;;;;;;1516014;78;727;-67
2023/09/17 10:44:19;;;;;;;;;;;23.20;62.10;;;;;;1518933;76;1499;-67
2023/09/17 10:46:21;;;;;;;;;;;23.20;62.10;;;;;;1518093;77;793;-68
2023/09/17 10:48:22;;;;;;;;;;;23.30;62.30;;;;;;1523460;76;1118;-68
2023/09/17 10:50:27;;;;;;;;;;;23.20;62.30;;;;;;1524144;78;787;-67
2023/09/17 10:52:30;;;;;;;;;;;23.30;62.40;;;;;;1520119;76;698;-67
2023/09/17 10:54:32;;;;;;;;;;;23.20;62.30;;;;;;1516893;77;1948;-67
2023/09/17 10:56:34;;;;;;;;;;;23.20;62.40;;;;;;1520726;78;836;-67
2023/09/17 10:58:42;;;;;;;;;;;23.20;62.40;;;;;;1521371;77;1069;-67
2023/09/17 11:00:44;;;;;;;;;;;23.20;62.40;;;;;;1523352;78;1797;-66
2023/09/17 11:02:46;;;;;;;;;;;23.20;62.50;;;;;;1524991;77;734;-68
2023/09/17 11:04:48;;;;;;;;;;;23.20;62.50;;;;;;1521121;78;798;-68
2023/09/17 11:06:50;;;;;;;;;;;23.30;62.50;;;;;;1520716;77;749;-68
2023/09/17 11:08:57;;;;;;;;;;;23.20;62.50;;;;;;1522256;78;1098;-68
2023/09/17 11:10:57;;;;;;;;;;;23.30;62.60;;;;;;1522652;76;1291;-67
2023/09/17 11:12:59;;;;;;;;;;;23.20;62.60;;;;;;1517439;77;1953;-68
2023/09/17 11:15:00;;;;;;;;;;;23.30;62.70;;;;;;1512486;77;733;-67
2023/09/17 11:17:04;;;;;;;;;;;23.20;62.60;;;;;;1516140;76;1123;-66
2023/09/17 11:19:06;;;;;;;;;;;23.30;62.70;;;;;;1519182;78;768;-67
2023/09/17 11:21:08;;;;;;;;;;;23.30;62.70;;;;;;1523880;77;781;-68
2023/09/17 11:23:11;;;;;;;;;;;23.20;62.70;;;;;;1482216;78;1368;-67
2023/09/17 11:25:13;;;;;;;;;;;23.30;62.70;;;;;;1520366;76;798;-68
2023/09/17 11:27:16;;;;;;;;;;;23.30;62.70;;;;;;1523196;77;1091;-67
2023/09/17 11:29:18;;;;;;;;;;;23.30;62.80;;;;;;1520909;77;1021;-68
2023/09/17 11:31:20;;;;;;;;;;;23.30;62.80;;;;;;1520806;76;885;-68
2023/09/17 11:33:23;;;;;;;;;;;23.30;62.80;;;;;;1521337;77;1921;-65
2023/09/17 11:35:25;;;;;;;;;;;23.30;62.80;;;;;;1491928;78;734;-67
2023/09/17 11:37:27;;;;;;;;;;;23.30;62.80;;;;;;1524781;77;1138;-67
2023/09/17 11:39:29;;;;;;;;;;;23.30;62.70;;;;;;1516830;76;1495;-67
2023/09/17 11:41:35;;;;;;;;;;;23.30;62.70;;;;;;1523311;77;857;-67
2023/09/17 11:43:38;;;;;;;;;;;23.20;62.70;;;;;;1510359;77;1347;-68
2023/09/17 11:45:40;;;;;;;;;;;23.30;62.70;;;;;;1521147;77;790;-67
2023/09/17 11:47:42;;;;;;;;;;;23.30;62.80;;;;;;1483139;79;1120;-68
2023/09/17 11:49:44;;;;;;;;;;;23.40;62.70;;;;;;1522803;77;740;-68
2023/09/17 11:51:46;;;;;;;;;;;23.30;62.70;;;;;;1518845;76;645;-67
2023/09/17 11:53:56;;;;;;;;;;;23.30;62.70;;;;;;1521459;77;1941;-67
2023/09/17 11:56:00;;;;;;;;;;;23.30;62.70;;;;;;1520185;76;801;-67
2023/09/17 11:58:15;;;;;;;;;;;23.20;62.60;;;;;;1525181;77;2082;-68
2023/09/17 12:00:29;;;;;;;;;;;23.30;62.70;;;;;;1526443;76;850;-67
2023/09/17 12:02:31;;;;;;;;;;;23.30;62.70;;;;;;1518349;77;801;-67
2023/09/17 12:04:38;;;;;;;;;;;23.30;62.70;;;;;;1515032;78;732;-67
2023/09/17 12:06:42;;;;;;;;;;;23.30;62.60;;;;;;1505800;78;1207;-67
2023/09/17 12:08:42;;;;;;;;;;;23.30;62.60;;;;;;1522311;77;1248;-69
2023/09/17 12:10:52;;;;;;;;;;;23.30;62.60;;;;;;1518876;77;804;-67